createdAt,value
2022-08-03T00:00:48.314Z,6.60
2022-08-03T00:06:09.298Z,7.85
2022-08-03T00:11:30.202Z,7.10
2022-08-03T00:16:50.578Z,7.35
2022-08-03T00:22:11.580Z,6.97
2022-08-03T00:27:32.675Z,7.22
2022-08-03T00:32:54.373Z,7.95
2022-08-03T00:38:15.539Z,8.88
2022-08-03T00:43:36.202Z,7.75
2022-08-03T00:48:56.984Z,7.95
2022-08-03T00:54:17.936Z,7.35
2022-08-03T00:59:39.270Z,8.68
2022-08-03T01:05:00.212Z,10.50
2022-08-03T01:11:01.868Z,10.25
2022-08-03T01:16:37.055Z,10.57
2022-08-03T01:22:00.816Z,11.63
2022-08-03T01:27:28.612Z,11.13
2022-08-03T01:33:01.854Z,10.77
2022-08-03T01:38:28.818Z,11.00
2022-08-03T01:44:27.242Z,10.57
2022-08-03T01:49:37.165Z,11.02
2022-08-03T01:55:00.072Z,9.65
2022-08-03T02:00:21.299Z,10.07
2022-08-03T02:05:47.248Z,9.52
2022-08-03T02:11:08.328Z,10.77
2022-08-03T02:16:30.939Z,9.95
2022-08-03T02:21:57.217Z,11.75
2022-08-03T02:27:24.379Z,13.93
2022-08-03T02:32:54.482Z,12.38
2022-08-03T02:38:19.306Z,13.27
2022-08-03T02:44:05.946Z,14.63
2022-08-03T02:49:40.979Z,12.75
2022-08-03T02:55:05.626Z,8.43
2022-08-03T03:00:27.494Z,7.72
2022-08-03T03:05:55.339Z,6.15
2022-08-03T03:11:20.926Z,5.78
2022-08-03T03:16:44.503Z,5.63
2022-08-03T03:22:12.581Z,5.70
2022-08-03T03:27:34.088Z,6.22
2022-08-03T03:32:55.301Z,6.43
2022-08-03T03:38:16.352Z,5.97
2022-08-03T03:43:36.748Z,5.90
2022-08-03T03:48:57.842Z,6.72
2022-08-03T03:54:18.496Z,9.13
2022-08-03T03:59:40.603Z,7.88
2022-08-03T04:05:20.270Z,6.68
2022-08-03T04:10:59.022Z,5.03
2022-08-03T04:16:24.284Z,5.25
2022-08-03T04:21:49.951Z,4.60
2022-08-03T04:27:14.093Z,4.18
2022-08-03T04:32:37.295Z,3.33
2022-08-03T04:38:02.495Z,4.50
2022-08-03T04:43:25.481Z,4.13
2022-08-03T04:48:46.225Z,3.95
2022-08-03T04:54:07.513Z,3.47
2022-08-03T04:59:28.110Z,3.85
2022-08-03T05:04:49.238Z,3.60
2022-08-03T05:10:16.340Z,3.45
2022-08-03T05:15:42.849Z,3.53
2022-08-03T05:21:04.992Z,3.58
2022-08-03T05:26:25.975Z,4.07
2022-08-03T05:31:47.617Z,3.33
2022-08-03T05:37:08.720Z,3.28
2022-08-03T05:42:29.981Z,4.15
2022-08-03T05:47:51.070Z,3.83
2022-08-03T05:53:12.105Z,4.13
2022-08-03T05:58:32.546Z,3.67
2022-08-03T06:03:54.220Z,4.15
2022-08-03T06:09:15.300Z,3.55
2022-08-03T06:14:36.106Z,3.80
2022-08-03T06:19:56.999Z,3.83
2022-08-03T06:25:17.781Z,3.97
2022-08-03T06:36:03.068Z,3.83
2022-08-03T06:41:23.696Z,3.47
2022-08-03T06:46:44.447Z,3.90
2022-08-03T06:52:16.647Z,3.65
2022-08-03T06:57:46.298Z,3.30
2022-08-03T07:03:07.060Z,3.83
2022-08-03T07:08:33.809Z,2.70
2022-08-03T07:13:56.395Z,3.63
2022-08-03T07:19:16.811Z,4.05
2022-08-03T07:24:37.806Z,3.83
2022-08-03T07:30:00.963Z,3.47
2022-08-03T07:35:25.057Z,3.80
2022-08-03T07:40:46.508Z,4.55
2022-08-03T07:46:07.217Z,3.78
2022-08-03T07:51:27.959Z,3.65
2022-08-03T07:56:48.904Z,4.57
2022-08-03T08:02:09.563Z,4.15
2022-08-03T08:07:29.939Z,4.20
2022-08-03T08:12:50.370Z,3.63
2022-08-03T08:18:11.228Z,3.65
2022-08-03T08:23:42.558Z,3.58
2022-08-03T08:29:05.234Z,3.60
2022-08-03T08:34:25.883Z,4.03
2022-08-03T08:39:46.688Z,4.25
2022-08-03T08:45:09.260Z,4.00
2022-08-03T08:50:30.392Z,3.47
2022-08-03T08:55:58.203Z,3.20
2022-08-03T09:01:21.766Z,3.80
2022-08-03T09:06:53.716Z,4.03
2022-08-03T09:12:40.921Z,3.63
2022-08-03T09:18:04.333Z,3.92
2022-08-03T09:24:00.719Z,3.42
2022-08-03T09:29:15.374Z,3.03
2022-08-03T09:34:36.379Z,4.32
2022-08-03T09:39:57.337Z,4.28
2022-08-03T09:45:27.847Z,4.05
2022-08-03T09:50:58.487Z,4.57
2022-08-03T09:56:40.262Z,4.13
2022-08-03T10:02:01.870Z,4.25
2022-08-03T10:07:24.773Z,5.60
2022-08-03T10:12:45.348Z,4.65
2022-08-03T10:18:07.509Z,4.47
2022-08-03T10:23:34.929Z,4.72
2022-08-03T10:28:59.566Z,4.32
2022-08-03T10:34:24.168Z,4.10
2022-08-03T10:39:53.820Z,6.10
2022-08-03T10:45:25.374Z,4.35
2022-08-03T10:50:48.502Z,5.32
2022-08-03T10:56:50.564Z,5.35
2022-08-03T11:02:11.019Z,5.07
2022-08-03T11:07:31.821Z,5.28
2022-08-03T11:13:07.274Z,4.78
2022-08-03T11:18:28.543Z,4.38
2022-08-03T11:24:03.404Z,6.72
2022-08-03T11:29:30.906Z,5.57
2022-08-03T11:35:07.265Z,5.25
2022-08-03T11:40:53.744Z,5.88
2022-08-03T11:46:28.590Z,5.95
2022-08-03T11:51:54.459Z,5.95
2022-08-03T11:58:58.057Z,5.65
2022-08-03T12:03:13.630Z,5.40
2022-08-03T12:08:34.353Z,6.05
2022-08-03T12:14:45.074Z,7.63
2022-08-03T12:19:44.894Z,6.22
2022-08-03T12:25:09.587Z,6.43
2022-08-03T12:30:30.247Z,7.50
2022-08-03T12:36:05.981Z,5.82
2022-08-03T12:41:35.136Z,6.45
2022-08-03T12:46:58.854Z,6.95
2022-08-03T12:57:42.265Z,7.93
2022-08-03T13:08:48.352Z,6.82
2022-08-03T13:14:09.468Z,7.72
2022-08-03T13:19:38.458Z,7.57
2022-08-03T13:25:01.064Z,8.07
2022-08-03T13:30:29.883Z,7.57
2022-08-03T13:35:50.935Z,7.05
2022-08-03T13:41:15.415Z,6.50
2022-08-03T13:46:36.615Z,6.53
2022-08-03T13:51:57.604Z,5.90
2022-08-03T13:58:03.563Z,5.40
2022-08-03T14:03:07.967Z,5.88
2022-08-03T14:08:33.176Z,7.15
2022-08-03T14:13:53.921Z,6.82
2022-08-03T14:19:15.801Z,8.18
2022-08-03T14:24:42.264Z,6.80
2022-08-03T14:30:03.803Z,6.80
2022-08-03T14:35:24.139Z,7.32
2022-08-03T14:40:44.657Z,6.65
2022-08-03T14:46:05.063Z,6.75
2022-08-03T14:51:25.584Z,5.63
2022-08-03T14:56:52.424Z,7.53
2022-08-03T15:02:21.242Z,6.72
2022-08-03T15:07:44.062Z,6.60
2022-08-03T15:13:04.398Z,5.85
2022-08-03T15:18:24.810Z,6.03
2022-08-03T15:23:45.567Z,5.90
2022-08-03T15:29:05.999Z,6.28
2022-08-03T15:34:26.589Z,5.55
2022-08-03T15:39:59.176Z,5.90
2022-08-03T15:45:22.571Z,6.55
2022-08-03T15:50:43.768Z,6.97
2022-08-03T15:56:09.802Z,7.03
2022-08-03T16:01:32.800Z,6.18
2022-08-03T16:06:53.228Z,7.93
2022-08-03T16:12:16.046Z,6.82
2022-08-03T16:17:38.780Z,6.70
2022-08-03T16:22:59.086Z,7.25
2022-08-03T16:28:23.018Z,6.77
2022-08-03T16:33:43.940Z,7.30
2022-08-03T16:39:04.569Z,5.88
2022-08-03T16:44:25.379Z,6.28
2022-08-03T16:49:54.876Z,8.00
2022-08-03T16:55:42.874Z,6.93
2022-08-03T17:00:57.253Z,6.32
2022-08-03T17:06:19.433Z,6.63
2022-08-03T17:11:47.254Z,6.67
2022-08-03T17:17:47.512Z,6.90
2022-08-03T17:23:35.671Z,7.47
2022-08-03T17:29:02.325Z,6.73
2022-08-03T17:34:34.062Z,6.20
2022-08-03T17:39:59.297Z,6.97
2022-08-03T17:45:20.643Z,6.03
2022-08-03T17:50:50.443Z,7.03
2022-08-03T17:56:40.293Z,5.55
2022-08-03T18:02:30.767Z,6.10
2022-08-03T18:07:59.192Z,6.60
2022-08-03T18:13:24.301Z,7.55
2022-08-03T18:18:45.023Z,5.78
2022-08-03T18:24:11.065Z,6.53
2022-08-03T18:29:31.623Z,7.15
2022-08-03T18:34:56.448Z,6.55
2022-08-03T18:40:20.736Z,7.18
2022-08-03T18:45:56.336Z,6.05
2022-08-03T18:51:24.129Z,5.80
2022-08-03T18:57:00.324Z,7.25
2022-08-03T19:02:48.980Z,7.15
2022-08-03T19:08:16.961Z,6.40
2022-08-03T19:13:50.921Z,6.72
2022-08-03T19:19:14.510Z,6.97
2022-08-03T19:24:38.608Z,6.85
2022-08-03T19:30:04.089Z,7.82
2022-08-03T19:35:46.692Z,6.35
2022-08-03T19:41:13.898Z,6.68
2022-08-03T19:46:54.048Z,6.53
2022-08-03T19:52:20.617Z,7.00
2022-08-03T19:57:45.628Z,6.32
2022-08-03T20:03:19.671Z,5.47
2022-08-03T20:08:44.173Z,5.93
2022-08-03T20:14:05.649Z,8.18
2022-08-03T20:19:32.675Z,7.18
2022-08-03T20:24:56.912Z,7.22
2022-08-03T20:30:18.598Z,7.82
2022-08-03T20:35:49.381Z,5.90
2022-08-03T20:41:10.160Z,8.25
2022-08-03T20:46:46.445Z,7.50
2022-08-03T20:52:18.407Z,8.05
2022-08-03T20:57:40.337Z,6.97
2022-08-03T21:03:01.307Z,6.68
2022-08-03T21:14:20.253Z,6.88
2022-08-03T21:19:51.989Z,7.30
2022-08-03T21:25:28.924Z,7.60
2022-08-03T21:30:57.154Z,6.90
2022-08-03T21:36:35.015Z,7.13
2022-08-03T21:42:02.802Z,7.68
2022-08-03T21:47:29.289Z,6.22
2022-08-03T21:52:54.703Z,6.77
2022-08-03T21:58:20.533Z,7.30
2022-08-03T22:03:54.111Z,7.80
2022-08-03T22:09:20.250Z,7.22
2022-08-03T22:14:41.166Z,7.13
2022-08-03T22:20:02.496Z,7.05
2022-08-03T22:25:29.183Z,7.43
2022-08-03T22:30:52.022Z,7.20
2022-08-03T22:36:13.531Z,8.18
2022-08-03T22:41:34.223Z,7.20
2022-08-03T22:46:56.109Z,6.47
2022-08-03T22:52:16.902Z,7.13
2022-08-03T22:57:37.622Z,5.80
2022-08-03T23:03:01.929Z,7.25
2022-08-03T23:08:25.193Z,6.07
2022-08-03T23:13:52.144Z,5.88
2022-08-03T23:19:17.277Z,6.45
2022-08-03T23:24:46.223Z,6.22
2022-08-03T23:30:08.218Z,5.47
2022-08-03T23:36:22.679Z,6.03
2022-08-03T23:41:29.983Z,5.97
2022-08-03T23:46:50.601Z,5.72
2022-08-03T23:52:32.009Z,7.80
2022-08-03T23:58:11.088Z,6.72
